.
WxDataArchive / Data Records for 2012-01-10
2012-01-09 January 2012 2012-01-11

Data Records for Tuesday, 10 January 2012

Time	Temp	Chill	HIndex	Humid	Dewpt	 Wind 	HiWind	WindDir	Rain 	Barom 
-----	----	-----	------	-----	-----	------	------	-------	-----	----- 
00:00	37.6	37.6	37.6	61	25.4	3	5	270	0.00	29.999 
00:05	37.6	37.6	37.6	61	25.4	2	6	248	0.00	29.999 
00:10	37.6	37.6	37.6	61	25.4	3	9	248	0.00	29.999 
00:15	37.8	37.8	37.8	61	25.6	3	5	270	0.00	29.994 
00:20	37.6	37.6	37.6	62	25.8	3	5	270	0.00	29.994 
00:25	37.6	37.6	37.6	62	25.8	2	4	248	0.00	29.994 
00:30	37.5	37.5	37.5	62	25.7	2	6	248	0.00	29.995 
00:35	37.3	37.3	37.3	63	25.9	2	3	225	0.00	29.995 
00:40	37.2	37.2	37.2	63	25.8	2	4	248	0.00	29.995 
00:45	37.0	37.0	37.0	64	26.0	2	4	292	0.00	29.993 
00:50	37.0	37.0	37.0	64	26.0	2	4	270	0.00	29.993 
00:55	36.9	36.9	36.9	64	25.9	2	6	270	0.00	29.993 
01:00	36.9	36.9	36.9	64	25.9	2	4	270	0.00	29.985 
01:05	36.8	36.8	36.8	65	26.2	2	4	270	0.00	29.985 
01:10	36.6	36.6	36.6	65	26.0	1	3	270	0.00	29.985 
01:15	36.5	36.5	36.5	65	25.9	1	3	248	0.00	29.981 
01:20	36.3	36.3	36.3	65	25.7	1	2	248	0.00	29.981 
01:25	36.2	36.2	36.2	66	26.0	1	2	248	0.00	29.981 
01:30	36.0	36.0	36.0	66	25.8	0	2	248	0.00	29.982 
01:35	35.9	35.9	35.9	67	26.0	0	2	248	0.00	29.982 
01:40	35.8	35.8	35.8	67	25.9	0	2	248	0.00	29.982 
01:45	35.6	35.6	35.6	68	26.1	1	4	248	0.00	29.991 
01:50	35.5	35.5	35.5	68	26.0	0	2	248	0.00	29.991 
01:55	35.3	35.3	35.3	68	25.8	0	1	248	0.00	29.991 
02:00	35.0	35.0	35.0	69	25.9	1	3	248	0.00	29.995 
02:05	34.9	34.9	34.9	69	25.8	0	2	248	0.00	29.995 
02:10	34.7	34.7	34.7	69	25.6	0	2	248	0.00	29.995 
02:15	34.6	34.6	34.6	70	25.8	0	2	248	0.00	29.988 
02:20	34.3	34.3	34.3	70	25.5	0	2	248	0.00	29.988 
02:25	34.1	34.1	34.1	71	25.7	0	2	248	0.00	29.988 
02:30	34.0	34.0	34.0	72	25.9	0	1	248	0.00	29.992 
02:35	33.8	33.8	33.8	72	25.7	0	1	248	0.00	29.992 
02:40	33.7	33.7	33.7	72	25.7	0	1	248	0.00	29.992 
02:45	33.7	33.7	33.7	73	26.0	0	2	248	0.00	29.990 
02:50	33.7	33.7	33.7	73	26.0	0	1	248	0.00	29.990 
02:55	33.5	33.5	33.5	73	25.8	0	1	248	0.00	29.990 
03:00	33.5	33.5	33.5	73	25.8	0	1	248	0.00	29.996 
03:05	33.2	33.2	33.2	73	25.5	0	0	---	0.00	29.996 
03:10	33.1	33.1	33.1	74	25.7	0	1	248	0.00	29.996 
03:15	32.9	32.9	32.9	74	25.5	0	1	248	0.00	29.999 
03:20	32.8	32.8	32.8	75	25.8	0	2	248	0.00	29.999 
03:25	32.7	32.7	32.7	75	25.7	0	1	248	0.00	29.999 
03:30	32.7	32.7	32.7	75	25.7	0	1	248	0.00	30.004 
03:35	32.7	32.7	32.7	76	26.0	0	0	---	0.00	30.004 
03:40	32.5	32.5	32.5	76	25.8	0	1	248	0.00	30.004 
03:45	32.4	32.4	32.4	76	25.7	0	2	248	0.00	30.013 
03:50	32.4	32.4	32.4	76	25.7	0	3	248	0.00	30.013 
03:55	32.5	32.5	32.5	76	25.8	0	1	248	0.00	30.013 
04:00	32.4	32.4	32.4	76	25.7	0	2	248	0.00	30.009 
04:05	32.4	32.4	32.4	76	25.7	0	1	248	0.00	30.009 
04:10	32.2	32.2	32.2	77	25.8	0	1	248	0.00	30.009 
04:15	32.2	32.2	32.2	76	25.5	0	1	248	0.00	30.002 
04:20	32.1	32.1	32.1	77	25.7	0	1	248	0.00	30.002 
04:25	31.9	31.9	31.9	77	25.5	0	1	248	0.00	30.002 
04:30	31.8	31.8	31.8	77	25.4	0	1	248	0.00	30.003 
04:35	31.8	31.8	31.8	77	25.4	0	1	248	0.00	30.003 
04:40	31.8	31.8	31.8	78	25.7	0	1	248	0.00	30.003 
04:45	31.6	31.6	31.6	78	25.5	0	1	248	0.00	30.009 
04:50	31.5	31.5	31.5	78	25.4	0	0	---	0.00	30.009 
04:55	31.3	31.3	31.3	78	25.3	0	1	248	0.00	30.009 
05:00	31.2	31.2	31.2	79	25.5	0	1	248	0.00	30.010 
05:05	31.0	31.0	31.0	79	25.3	0	0	---	0.00	30.010 
05:10	30.9	30.9	30.9	79	25.2	0	0	---	0.00	30.010 
05:15	30.7	30.7	30.7	80	25.3	0	2	248	0.00	30.014 
05:20	30.7	30.7	30.7	80	25.3	0	0	---	0.00	30.014 
05:25	30.7	30.7	30.7	80	25.3	0	1	248	0.00	30.014 
05:30	30.9	30.9	30.9	81	25.8	0	1	248	0.00	30.017 
05:35	30.9	30.9	30.9	80	25.5	0	1	248	0.00	30.017 
05:40	30.7	30.7	30.7	80	25.3	0	1	248	0.00	30.017 
05:45	30.7	30.7	30.7	81	25.6	0	2	248	0.00	30.023 
05:50	30.6	30.6	30.6	81	25.5	0	0	---	0.00	30.023 
05:55	30.6	30.6	30.6	81	25.5	0	1	248	0.00	30.023 
06:00	30.4	30.4	30.4	81	25.3	0	1	248	0.00	30.033 
06:05	30.6	30.6	30.6	81	25.5	0	2	248	0.00	30.033 
06:10	30.6	30.6	30.6	81	25.5	0	2	248	0.00	30.033 
06:15	30.7	30.7	30.7	81	25.6	0	1	248	0.00	30.036 
06:20	30.7	30.7	30.7	81	25.6	0	1	248	0.00	30.036 
06:25	30.7	30.7	30.7	81	25.6	0	1	248	0.00	30.036 
06:30	30.7	30.7	30.7	81	25.6	0	0	---	0.00	30.041 
06:35	30.7	30.7	30.7	81	25.6	0	0	---	0.00	30.041 
06:40	30.7	30.7	30.7	81	25.6	0	1	248	0.00	30.041 
06:45	30.4	30.4	30.4	81	25.3	0	0	---	0.00	30.045 
06:50	30.3	30.3	30.3	81	25.2	0	0	---	0.00	30.045 
06:55	30.1	30.1	30.1	81	25.0	0	0	---	0.00	30.045 
07:00	30.0	30.0	30.0	81	24.9	0	0	---	0.00	30.048 
07:05	29.7	29.7	29.7	82	24.9	0	0	---	0.00	30.048 
07:10	29.5	29.5	29.5	82	24.7	0	0	---	0.00	30.048 
07:15	29.3	29.3	29.3	82	24.5	0	0	---	0.00	30.051 
07:20	29.1	29.1	29.1	83	24.6	0	0	---	0.00	30.051 
07:25	29.0	29.0	29.0	83	24.5	0	1	248	0.00	30.051 
07:30	29.1	29.1	29.1	84	24.9	0	0	---	0.00	30.053 
07:35	29.1	29.1	29.1	84	24.9	0	1	248	0.00	30.053 
07:40	29.1	29.1	29.1	84	24.9	0	1	248	0.00	30.053 
07:45	29.0	29.0	29.0	84	24.8	0	0	---	0.00	30.061 
07:50	29.0	29.0	29.0	84	24.8	0	0	---	0.00	30.061 
07:55	28.8	28.8	28.8	84	24.6	0	0	---	0.00	30.061 
08:00	28.8	28.8	28.8	84	24.6	0	0	---	0.00	30.068 
08:05	28.7	28.7	28.7	84	24.5	0	0	---	0.00	30.068 
08:10	28.5	28.5	28.5	84	24.3	0	0	---	0.00	30.068 
08:15	28.4	28.4	28.4	84	24.2	0	0	---	0.00	30.071 
08:20	28.2	28.2	28.2	84	24.0	0	0	---	0.00	30.071 
08:25	28.2	28.2	28.2	85	24.3	0	0	---	0.00	30.071 
08:30	28.4	28.4	28.4	86	24.8	0	0	---	0.00	30.078 
08:35	28.5	28.5	28.5	86	24.9	0	1	248	0.00	30.078 
08:40	28.8	28.8	28.8	86	25.2	0	0	---	0.00	30.078 
08:45	29.1	29.1	29.1	86	25.4	0	1	248	0.00	30.080 
08:50	29.7	29.7	29.7	86	26.0	0	0	---	0.00	30.080 
08:55	30.0	30.0	30.0	86	26.3	0	1	248	0.00	30.080 
09:00	30.3	30.3	30.3	85	26.3	0	0	---	0.00	30.084 
09:05	30.6	30.6	30.6	85	26.6	0	0	---	0.00	30.084 
09:10	30.9	30.9	30.9	85	26.9	0	2	248	0.00	30.084 
09:15	31.2	31.2	31.2	84	26.9	0	1	248	0.00	30.085 
09:20	31.6	31.6	31.6	84	27.3	0	1	248	0.00	30.085 
09:25	32.1	32.1	32.1	83	27.5	0	1	248	0.00	30.085 
09:30	32.4	32.4	32.4	82	27.5	0	1	248	0.00	30.084 
09:35	32.8	32.8	32.8	81	27.6	0	2	248	0.00	30.084 
09:40	33.1	33.1	33.1	81	27.9	0	1	248	0.00	30.084 
09:45	33.7	33.7	33.7	80	28.2	0	2	248	0.00	30.095 
09:50	34.1	34.1	34.1	79	28.3	0	1	248	0.00	30.095 
09:55	34.4	34.4	34.4	78	28.3	0	1	248	0.00	30.095 
10:00	34.7	34.7	34.7	78	28.6	0	2	248	0.00	30.077 
10:05	35.0	35.0	35.0	77	28.5	0	2	248	0.00	30.077 
10:10	35.3	35.3	35.3	77	28.8	1	3	248	0.00	30.077 
10:15	35.8	35.8	35.8	76	29.0	0	2	248	0.00	30.076 
10:20	36.0	36.0	36.0	76	29.2	0	3	248	0.00	30.076 
10:25	36.5	36.5	36.5	75	29.3	1	4	248	0.00	30.076 
10:30	36.8	36.8	36.8	74	29.3	0	3	248	0.00	30.066 
10:35	37.2	37.2	37.2	74	29.7	0	2	248	0.00	30.066 
10:40	37.6	37.6	37.6	74	30.1	0	1	248	0.00	30.066 
10:45	38.0	38.0	38.0	73	30.1	0	2	248	0.00	30.065 
10:50	38.3	38.3	38.3	72	30.1	0	2	248	0.00	30.065 
10:55	38.6	38.6	38.6	72	30.4	0	1	248	0.00	30.065 
11:00	38.9	38.9	38.9	71	30.3	0	2	248	0.00	30.060 
11:05	39.3	39.3	39.3	71	30.7	0	2	248	0.00	30.060 
11:10	39.6	39.6	39.6	70	30.6	0	1	248	0.00	30.060 
11:15	39.8	39.8	39.8	69	30.5	0	1	248	0.00	30.058 
11:20	40.2	40.2	40.2	69	30.9	0	2	248	0.00	30.058 
11:25	40.6	40.6	40.6	70	31.6	0	1	248	0.00	30.058 
11:30	41.1	41.1	41.1	69	31.7	0	1	248	0.00	30.055 
11:35	41.3	41.3	41.3	68	31.5	0	2	248	0.00	30.055 
11:40	41.6	41.6	41.6	68	31.8	0	2	248	0.00	30.055 
11:45	41.8	41.8	41.8	67	31.7	1	4	248	0.00	30.047 
11:50	41.9	41.9	41.9	67	31.8	0	3	248	0.00	30.047 
11:55	42.2	42.2	42.2	67	32.0	0	2	248	0.00	30.047 
12:00	42.3	42.3	42.3	66	31.8	1	3	248	0.00	30.040 
12:05	42.6	42.6	42.6	66	32.0	1	3	248	0.00	30.040 
12:10	42.8	42.8	42.8	65	31.9	1	3	90	0.00	30.040 
12:15	42.9	42.9	42.9	64	31.6	1	3	225	0.00	30.035 
12:20	43.2	43.2	43.2	65	32.2	1	4	22	0.00	30.035 
12:25	43.3	43.3	43.3	65	32.3	0	3	112	0.00	30.035 
12:30	43.6	43.6	43.6	63	31.8	2	4	112	0.00	30.024 
12:35	43.8	43.8	43.8	63	32.0	1	4	292	0.00	30.024 
12:40	43.8	43.8	43.8	62	31.6	1	4	90	0.00	30.024 
12:45	44.1	44.1	44.1	63	32.3	0	3	90	0.00	30.015 
12:50	44.2	44.2	44.2	63	32.4	0	2	90	0.00	30.015 
12:55	44.3	44.3	44.3	62	32.1	1	4	248	0.00	30.015 
13:00	44.5	44.5	44.5	61	31.9	1	2	68	0.00	30.010 
13:05	44.6	44.6	44.6	61	32.0	1	3	292	0.00	30.010 
13:10	44.8	44.8	44.8	60	31.8	1	4	248	0.00	30.010 
13:15	44.9	44.9	44.9	60	31.9	1	4	248	0.00	30.009 
13:20	45.1	45.1	45.1	58	31.2	3	6	248	0.00	30.009 
13:25	45.1	45.1	45.1	58	31.2	2	5	248	0.00	30.009 
13:30	45.1	45.1	45.1	58	31.2	1	5	248	0.00	30.008 
13:35	45.2	45.2	45.2	59	31.7	1	4	292	0.00	30.008 
13:40	45.4	45.4	45.4	59	31.9	1	4	248	0.00	30.008 
13:45	45.5	45.5	45.5	58	31.6	1	5	248	0.00	30.006 
13:50	45.5	45.5	45.5	58	31.6	1	4	248	0.00	30.006 
13:55	45.8	45.8	45.8	58	31.9	1	3	248	0.00	30.006 
14:00	46.1	46.1	46.1	58	32.2	1	4	248	0.00	29.995 
14:05	46.2	46.2	46.2	57	31.8	1	5	248	0.00	29.995 
14:10	46.2	46.2	46.2	58	32.2	1	4	248	0.00	29.995 
14:15	46.4	46.4	46.4	57	32.0	1	4	270	0.00	29.984 
14:20	46.4	46.4	46.4	56	31.6	2	5	248	0.00	29.984 
14:25	46.4	46.4	46.4	56	31.6	1	5	248	0.00	29.984 
14:30	46.4	46.4	46.4	57	32.0	1	4	248	0.00	29.982 
14:35	46.5	46.5	46.5	57	32.1	1	3	270	0.00	29.982 
14:40	46.7	46.7	46.7	56	31.8	1	4	270	0.00	29.982 
14:45	46.8	46.8	46.8	56	31.9	1	3	248	0.00	29.978 
14:50	47.0	47.0	47.0	56	32.1	1	4	248	0.00	29.978 
14:55	47.1	47.1	47.1	55	31.8	1	3	248	0.00	29.978 
15:00	47.3	47.3	47.3	54	31.5	1	3	248	0.00	29.975 
15:05	47.3	47.3	47.3	55	32.0	1	3	248	0.00	29.975 
15:10	47.3	47.3	47.3	55	32.0	0	3	248	0.00	29.975 
15:15	47.3	47.3	47.3	55	32.0	0	1	248	0.00	29.967 
15:20	47.3	47.3	47.3	55	32.0	0	2	248	0.00	29.967 
15:25	47.3	47.3	47.3	56	32.4	0	2	248	0.00	29.967 
15:30	47.4	47.4	47.4	55	32.1	0	3	248	0.00	29.966 
15:35	47.6	47.6	47.6	54	31.8	0	2	248	0.00	29.966 
15:40	47.7	47.7	47.7	55	32.3	0	1	248	0.00	29.966 
15:45	47.6	47.6	47.6	54	31.8	0	2	248	0.00	29.962 
15:50	47.6	47.6	47.6	55	32.2	1	3	248	0.00	29.962 
15:55	47.7	47.7	47.7	54	31.9	0	2	248	0.00	29.962 
16:00	47.9	47.9	47.9	54	32.1	0	2	248	0.00	29.961 
16:05	47.9	47.9	47.9	54	32.1	1	3	135	0.00	29.961 
16:10	47.7	47.7	47.7	54	31.9	0	3	248	0.00	29.961 
16:15	47.4	47.4	47.4	54	31.6	0	3	202	0.00	29.964 
16:20	47.3	47.3	47.3	55	32.0	0	3	225	0.00	29.964 
16:25	47.0	47.0	47.0	56	32.1	0	2	225	0.00	29.964 
16:30	46.8	46.8	46.8	56	31.9	0	2	180	0.00	29.965 
16:35	46.7	46.7	46.7	57	32.3	0	2	180	0.00	29.965 
16:40	46.5	46.5	46.5	57	32.1	0	1	180	0.00	29.965 
16:45	46.5	46.5	46.5	57	32.1	0	0	---	0.00	29.966 
16:50	46.2	46.2	46.2	57	31.8	0	2	180	0.00	29.966 
16:55	46.0	46.0	46.0	57	31.6	0	1	180	0.00	29.966 
17:00	45.7	45.7	45.7	58	31.8	0	1	180	0.00	29.965 
17:05	45.4	45.4	45.4	58	31.5	0	1	180	0.00	29.965 
17:10	45.1	45.1	45.1	59	31.6	0	0	---	0.00	29.965 
17:15	44.8	44.8	44.8	59	31.4	0	0	---	0.00	29.967 
17:20	44.3	44.3	44.3	60	31.3	0	0	---	0.00	29.967 
17:25	43.9	43.9	43.9	61	31.3	0	0	---	0.00	29.967 
17:30	43.5	43.5	43.5	62	31.4	0	0	---	0.00	29.965 
17:35	43.1	43.1	43.1	63	31.4	0	0	---	0.00	29.965 
17:40	42.6	42.6	42.6	63	30.9	0	0	---	0.00	29.965 
17:45	42.2	42.2	42.2	65	31.3	0	0	---	0.00	29.966 
17:50	41.8	41.8	41.8	66	31.3	0	0	---	0.00	29.966 
17:55	41.3	41.3	41.3	66	30.8	0	0	---	0.00	29.966 
18:00	40.9	40.9	40.9	67	30.8	0	0	---	0.00	29.968 
18:05	40.5	40.5	40.5	68	30.8	0	0	---	0.00	29.968 
18:10	40.1	40.1	40.1	68	30.4	0	0	---	0.00	29.968 
18:15	39.6	39.6	39.6	69	30.3	0	0	---	0.00	29.968 
18:20	39.2	39.2	39.2	70	30.3	0	0	---	0.00	29.968 
18:25	38.8	38.8	38.8	71	30.2	0	0	---	0.00	29.968 
18:30	38.3	38.3	38.3	71	29.7	0	0	---	0.00	29.972 
18:35	37.9	37.9	37.9	72	29.7	0	0	---	0.00	29.972 
18:40	37.5	37.5	37.5	74	30.0	0	0	---	0.00	29.972 
18:45	37.2	37.2	37.2	75	30.0	0	0	---	0.00	29.969 
18:50	36.9	36.9	36.9	77	30.4	0	0	---	0.00	29.969 
18:55	36.6	36.6	36.6	77	30.1	0	0	---	0.00	29.969 
19:00	36.3	36.3	36.3	77	29.8	0	0	---	0.00	29.962 
19:05	36.0	36.0	36.0	77	29.5	0	0	---	0.00	29.962 
19:10	35.6	35.6	35.6	78	29.4	0	0	---	0.00	29.962 
19:15	35.3	35.3	35.3	78	29.1	0	0	---	0.00	29.964 
19:20	35.2	35.2	35.2	79	29.4	0	0	---	0.00	29.964 
19:25	34.9	34.9	34.9	79	29.1	0	0	---	0.00	29.964 
19:30	34.6	34.6	34.6	79	28.8	0	0	---	0.00	29.973 
19:35	34.3	34.3	34.3	80	28.8	0	0	---	0.00	29.973 
19:40	34.1	34.1	34.1	80	28.6	0	0	---	0.00	29.973 
19:45	34.0	34.0	34.0	81	28.8	0	0	---	0.00	29.974 
19:50	33.7	33.7	33.7	81	28.5	0	0	---	0.00	29.974 
19:55	33.5	33.5	33.5	82	28.6	0	0	---	0.00	29.974 
20:00	33.4	33.4	33.4	83	28.8	0	0	---	0.00	29.967 
20:05	33.1	33.1	33.1	84	28.8	0	0	---	0.00	29.967 
20:10	32.9	32.9	32.9	84	28.6	0	0	---	0.00	29.967 
20:15	32.8	32.8	32.8	84	28.5	0	0	---	0.00	29.961 
20:20	32.7	32.7	32.7	84	28.4	0	0	---	0.00	29.961 
20:25	32.4	32.4	32.4	84	28.1	0	0	---	0.00	29.961 
20:30	32.2	32.2	32.2	85	28.2	0	0	---	0.00	29.961 
20:35	32.1	32.1	32.1	85	28.1	0	0	---	0.00	29.961 
20:40	31.9	31.9	31.9	85	27.9	0	0	---	0.00	29.961 
20:45	31.8	31.8	31.8	86	28.1	0	0	---	0.00	29.956 
20:50	31.6	31.6	31.6	86	27.9	0	0	---	0.00	29.956 
20:55	31.3	31.3	31.3	86	27.6	0	0	---	0.00	29.956 
21:00	31.2	31.2	31.2	86	27.5	0	0	---	0.00	29.950 
21:05	31.0	31.0	31.0	86	27.3	0	0	---	0.00	29.950 
21:10	30.9	30.9	30.9	87	27.5	0	0	---	0.00	29.950 
21:15	30.7	30.7	30.7	87	27.3	0	0	---	0.00	29.942 
21:20	30.6	30.6	30.6	87	27.2	0	0	---	0.00	29.942 
21:25	30.4	30.4	30.4	88	27.3	0	0	---	0.00	29.942 
21:30	30.3	30.3	30.3	88	27.2	0	0	---	0.00	29.941 
21:35	30.1	30.1	30.1	88	27.0	0	0	---	0.00	29.941 
21:40	30.0	30.0	30.0	88	26.9	0	0	---	0.00	29.941 
21:45	29.8	29.8	29.8	88	26.7	0	0	---	0.00	29.934 
21:50	29.7	29.7	29.7	88	26.6	0	0	---	0.00	29.934 
21:55	29.5	29.5	29.5	88	26.4	0	0	---	0.00	29.934 
22:00	29.5	29.5	29.5	88	26.4	0	0	---	0.00	29.929 
22:05	29.4	29.4	29.4	88	26.3	0	0	---	0.00	29.929 
22:10	29.3	29.3	29.3	88	26.2	0	0	---	0.00	29.929 
22:15	29.3	29.3	29.3	89	26.5	0	0	---	0.00	29.922 
22:20	29.3	29.3	29.3	89	26.5	0	0	---	0.00	29.922 
22:25	29.1	29.1	29.1	89	26.3	0	0	---	0.00	29.922 
22:30	29.1	29.1	29.1	89	26.3	0	0	---	0.00	29.917 
22:35	29.0	29.0	29.0	89	26.2	0	0	---	0.00	29.917 
22:40	29.0	29.0	29.0	89	26.2	0	0	---	0.00	29.917 
22:45	28.8	28.8	28.8	89	26.0	0	0	---	0.00	29.911 
22:50	28.8	28.8	28.8	89	26.0	0	0	---	0.00	29.911 
22:55	28.8	28.8	28.8	89	26.0	0	0	---	0.00	29.911 
23:00	28.7	28.7	28.7	89	25.9	0	0	---	0.00	29.908 
23:05	28.5	28.5	28.5	90	25.9	0	0	---	0.00	29.908 
23:10	28.5	28.5	28.5	90	25.9	0	0	---	0.00	29.908 
23:15	28.4	28.4	28.4	90	25.8	0	0	---	0.00	29.903 
23:20	28.4	28.4	28.4	90	25.8	0	0	---	0.00	29.903 
23:25	28.4	28.4	28.4	90	25.8	0	0	---	0.00	29.903 
23:30	28.4	28.4	28.4	90	25.8	0	0	---	0.00	29.900 
23:35	28.2	28.2	28.2	90	25.7	0	0	---	0.00	29.900 
23:40	28.2	28.2	28.2	91	25.9	0	0	---	0.00	29.900 
23:45	28.2	28.2	28.2	91	25.9	0	0	---	0.00	29.896 
23:50	28.2	28.2	28.2	91	25.9	0	0	---	0.00	29.896 
23:55	28.1	28.1	28.1	91	25.8	0	0	---	0.00	29.896 

CoCoRaHS
IN-AL-39
A2 Web Hosting
Creative Commons License
GoDaddy
search engine by freefind advanced

loaded 2018-11-17 22:54:20 • last modified 2010-11-18 10:43:29
Privacy PolicyDisclaimer
• wx.awcolley.com is powered by PmWiki v.2002016 •
• all content (unless otherwise noted) © 2018 A W Colley